sensor_id;sensor_type;location;lat;lon;timestamp;temperature;humidity
77467;DHT22;66564;42.482;25.548;2023-09-08T00:01:13;21.66;52.89
77467;DHT22;66564;42.482;25.548;2023-09-08T00:03:39;21.70;53.18
77467;DHT22;66564;42.482;25.548;2023-09-08T00:06:04;21.72;53.30
77467;DHT22;66564;42.482;25.548;2023-09-08T00:08:29;21.73;53.15
77467;DHT22;66564;42.482;25.548;2023-09-08T00:10:55;21.72;53.33
77467;DHT22;66564;42.482;25.548;2023-09-08T00:13:21;21.72;53.52
77467;DHT22;66564;42.482;25.548;2023-09-08T00:15:46;21.72;53.73
77467;DHT22;66564;42.482;25.548;2023-09-08T00:18:12;21.69;53.66
77467;DHT22;66564;42.482;25.548;2023-09-08T00:20:37;21.66;53.35
77467;DHT22;66564;42.482;25.548;2023-09-08T00:23:03;21.60;52.66
77467;DHT22;66564;42.482;25.548;2023-09-08T00:25:29;21.54;52.69
77467;DHT22;66564;42.482;25.548;2023-09-08T00:27:54;21.52;52.48
77467;DHT22;66564;42.482;25.548;2023-09-08T00:30:20;21.50;52.59
77467;DHT22;66564;42.482;25.548;2023-09-08T00:32:45;21.50;52.40
77467;DHT22;66564;42.482;25.548;2023-09-08T00:35:11;21.42;53.04
77467;DHT22;66564;42.482;25.548;2023-09-08T00:37:39;21.36;53.23
77467;DHT22;66564;42.482;25.548;2023-09-08T00:40:05;21.31;52.78
77467;DHT22;66564;42.482;25.548;2023-09-08T00:42:32;21.25;52.49
77467;DHT22;66564;42.482;25.548;2023-09-08T00:44:58;21.26;52.73
77467;DHT22;66564;42.482;25.548;2023-09-08T00:47:23;21.23;52.57
77467;DHT22;66564;42.482;25.548;2023-09-08T00:49:49;21.19;52.54
77467;DHT22;66564;42.482;25.548;2023-09-08T00:52:16;21.18;53.05
77467;DHT22;66564;42.482;25.548;2023-09-08T00:54:42;21.21;52.44
77467;DHT22;66564;42.482;25.548;2023-09-08T00:57:09;21.22;52.47
77467;DHT22;66564;42.482;25.548;2023-09-08T00:59:35;21.21;52.47
77467;DHT22;66564;42.482;25.548;2023-09-08T01:02:02;21.23;52.42
77467;DHT22;66564;42.482;25.548;2023-09-08T01:04:28;21.21;52.20
77467;DHT22;66564;42.482;25.548;2023-09-08T01:06:55;21.16;52.49
77467;DHT22;66564;42.482;25.548;2023-09-08T01:09:21;21.18;52.17
77467;DHT22;66564;42.482;25.548;2023-09-08T01:11:47;21.19;51.91
77467;DHT22;66564;42.482;25.548;2023-09-08T01:14:12;21.18;51.90
77467;DHT22;66564;42.482;25.548;2023-09-08T01:16:41;21.19;51.55
77467;DHT22;66564;42.482;25.548;2023-09-08T01:19:10;21.21;51.60
77467;DHT22;66564;42.482;25.548;2023-09-08T01:21:57;21.19;51.25
77467;DHT22;66564;42.482;25.548;2023-09-08T01:27:17;21.15;51.19
77467;DHT22;66564;42.482;25.548;2023-09-08T01:29:44;21.11;51.51
77467;DHT22;66564;42.482;25.548;2023-09-08T01:32:10;21.08;51.35
77467;DHT22;66564;42.482;25.548;2023-09-08T01:34:37;21.05;50.97
77467;DHT22;66564;42.482;25.548;2023-09-08T01:37:06;21.03;51.47
77467;DHT22;66564;42.482;25.548;2023-09-08T01:39:31;20.99;51.57
77467;DHT22;66564;42.482;25.548;2023-09-08T01:41:57;20.95;51.98
77467;DHT22;66564;42.482;25.548;2023-09-08T01:44:22;20.95;51.44
77467;DHT22;66564;42.482;25.548;2023-09-08T01:46:47;20.89;51.53
77467;DHT22;66564;42.482;25.548;2023-09-08T01:49:13;20.91;51.51
77467;DHT22;66564;42.482;25.548;2023-09-08T01:51:38;20.88;51.41
77467;DHT22;66564;42.482;25.548;2023-09-08T01:54:04;20.87;51.59
77467;DHT22;66564;42.482;25.548;2023-09-08T01:56:29;20.84;51.64
77467;DHT22;66564;42.482;25.548;2023-09-08T01:58:55;20.84;51.63
77467;DHT22;66564;42.482;25.548;2023-09-08T02:01:20;20.85;51.63
77467;DHT22;66564;42.482;25.548;2023-09-08T02:03:46;20.85;51.24
77467;DHT22;66564;42.482;25.548;2023-09-08T02:06:11;20.85;51.48
77467;DHT22;66564;42.482;25.548;2023-09-08T02:08:36;20.84;51.39
77467;DHT22;66564;42.482;25.548;2023-09-08T02:11:02;20.79;51.65
77467;DHT22;66564;42.482;25.548;2023-09-08T02:13:29;20.78;51.63
77467;DHT22;66564;42.482;25.548;2023-09-08T02:15:54;20.71;51.55
77467;DHT22;66564;42.482;25.548;2023-09-08T02:18:19;20.68;51.81
77467;DHT22;66564;42.482;25.548;2023-09-08T02:20:45;20.61;51.63
77467;DHT22;66564;42.482;25.548;2023-09-08T02:23:10;20.59;52.15
77467;DHT22;66564;42.482;25.548;2023-09-08T02:25:36;20.55;51.96
77467;DHT22;66564;42.482;25.548;2023-09-08T02:28:01;20.52;51.95
77467;DHT22;66564;42.482;25.548;2023-09-08T02:30:27;20.51;52.02
77467;DHT22;66564;42.482;25.548;2023-09-08T02:32:52;20.49;51.97
77467;DHT22;66564;42.482;25.548;2023-09-08T02:35:17;20.45;51.98
77467;DHT22;66564;42.482;25.548;2023-09-08T02:37:43;20.49;51.73
77467;DHT22;66564;42.482;25.548;2023-09-08T02:40:09;20.45;51.93
77467;DHT22;66564;42.482;25.548;2023-09-08T02:42:35;20.44;51.77
77467;DHT22;66564;42.482;25.548;2023-09-08T02:45:00;20.38;52.27
77467;DHT22;66564;42.482;25.548;2023-09-08T02:47:25;20.34;52.33
77467;DHT22;66564;42.482;25.548;2023-09-08T02:49:51;20.28;52.14
77467;DHT22;66564;42.482;25.548;2023-09-08T02:52:16;20.23;52.42
77467;DHT22;66564;42.482;25.548;2023-09-08T02:54:44;20.23;52.11
77467;DHT22;66564;42.482;25.548;2023-09-08T02:57:10;20.16;52.32
77467;DHT22;66564;42.482;25.548;2023-09-08T02:59:35;20.16;52.31
77467;DHT22;66564;42.482;25.548;2023-09-08T03:02:01;20.16;52.42
77467;DHT22;66564;42.482;25.548;2023-09-08T03:04:26;20.18;52.11
77467;DHT22;66564;42.482;25.548;2023-09-08T03:06:51;20.20;52.10
77467;DHT22;66564;42.482;25.548;2023-09-08T03:09:17;20.23;51.80
77467;DHT22;66564;42.482;25.548;2023-09-08T03:11:42;20.21;51.95
77467;DHT22;66564;42.482;25.548;2023-09-08T03:14:08;20.24;51.64
77467;DHT22;66564;42.482;25.548;2023-09-08T03:16:33;20.20;51.73
77467;DHT22;66564;42.482;25.548;2023-09-08T03:18:59;20.17;52.05
77467;DHT22;66564;42.482;25.548;2023-09-08T03:21:24;20.20;51.85
77467;DHT22;66564;42.482;25.548;2023-09-08T03:23:49;20.23;52.13
77467;DHT22;66564;42.482;25.548;2023-09-08T03:26:15;20.25;51.72
77467;DHT22;66564;42.482;25.548;2023-09-08T03:28:42;20.25;51.52
77467;DHT22;66564;42.482;25.548;2023-09-08T03:31:07;20.27;51.81
77467;DHT22;66564;42.482;25.548;2023-09-08T03:33:33;20.27;52.21
77467;DHT22;66564;42.482;25.548;2023-09-08T03:35:58;20.28;51.73
77467;DHT22;66564;42.482;25.548;2023-09-08T03:38:24;20.28;51.63
77467;DHT22;66564;42.482;25.548;2023-09-08T03:40:49;20.31;51.61
77467;DHT22;66564;42.482;25.548;2023-09-08T03:43:15;20.37;51.59
77467;DHT22;66564;42.482;25.548;2023-09-08T03:45:40;20.33;51.58
77467;DHT22;66564;42.482;25.548;2023-09-08T03:48:06;20.34;51.58
77467;DHT22;66564;42.482;25.548;2023-09-08T03:50:32;20.35;51.56
77467;DHT22;66564;42.482;25.548;2023-09-08T03:52:57;20.37;51.23
77467;DHT22;66564;42.482;25.548;2023-09-08T03:55:23;20.33;51.15
77467;DHT22;66564;42.482;25.548;2023-09-08T03:57:48;20.33;51.34
77467;DHT22;66564;42.482;25.548;2023-09-08T04:00:14;20.33;51.22
77467;DHT22;66564;42.482;25.548;2023-09-08T04:02:49;20.27;51.22
77467;DHT22;66564;42.482;25.548;2023-09-08T04:05:16;20.27;51.24
77467;DHT22;66564;42.482;25.548;2023-09-08T04:07:42;20.30;51.02
77467;DHT22;66564;42.482;25.548;2023-09-08T04:10:08;20.25;51.08
77467;DHT22;66564;42.482;25.548;2023-09-08T04:12:33;20.31;51.10
77467;DHT22;66564;42.482;25.548;2023-09-08T04:14:59;20.33;51.20
77467;DHT22;66564;42.482;25.548;2023-09-08T04:17:24;20.33;51.09
77467;DHT22;66564;42.482;25.548;2023-09-08T04:19:50;20.34;51.32
77467;DHT22;66564;42.482;25.548;2023-09-08T04:22:15;20.38;50.92
77467;DHT22;66564;42.482;25.548;2023-09-08T04:24:41;20.40;51.29
77467;DHT22;66564;42.482;25.548;2023-09-08T04:27:06;20.47;51.16
77467;DHT22;66564;42.482;25.548;2023-09-08T04:29:33;20.52;50.78
77467;DHT22;66564;42.482;25.548;2023-09-08T04:31:59;20.58;50.85
77467;DHT22;66564;42.482;25.548;2023-09-08T04:34:25;20.65;50.72
77467;DHT22;66564;42.482;25.548;2023-09-08T04:36:50;20.71;51.00
77467;DHT22;66564;42.482;25.548;2023-09-08T04:39:15;20.77;50.36
77467;DHT22;66564;42.482;25.548;2023-09-08T04:41:41;20.84;50.36
77467;DHT22;66564;42.482;25.548;2023-09-08T04:44:06;20.94;50.20
77467;DHT22;66564;42.482;25.548;2023-09-08T04:46:32;21.01;50.08
77467;DHT22;66564;42.482;25.548;2023-09-08T04:48:58;21.09;49.94
77467;DHT22;66564;42.482;25.548;2023-09-08T04:51:24;21.16;49.57
77467;DHT22;66564;42.482;25.548;2023-09-08T04:53:49;21.26;49.44
77467;DHT22;66564;42.482;25.548;2023-09-08T04:56:14;21.36;49.03
77467;DHT22;66564;42.482;25.548;2023-09-08T04:58:40;21.46;49.46
77467;DHT22;66564;42.482;25.548;2023-09-08T05:01:05;21.62;49.20
77467;DHT22;66564;42.482;25.548;2023-09-08T05:03:31;21.73;48.77
77467;DHT22;66564;42.482;25.548;2023-09-08T05:05:56;21.86;48.67
77467;DHT22;66564;42.482;25.548;2023-09-08T05:08:22;22.00;48.40
77467;DHT22;66564;42.482;25.548;2023-09-08T05:10:47;22.14;47.81
77467;DHT22;66564;42.482;25.548;2023-09-08T05:13:19;22.30;47.47
77467;DHT22;66564;42.482;25.548;2023-09-08T05:15:45;22.41;47.24
77467;DHT22;66564;42.482;25.548;2023-09-08T05:18:13;22.57;46.82
77467;DHT22;66564;42.482;25.548;2023-09-08T05:20:39;22.69;46.88
77467;DHT22;66564;42.482;25.548;2023-09-08T05:23:04;22.84;46.55
77467;DHT22;66564;42.482;25.548;2023-09-08T05:25:30;22.94;45.72
77467;DHT22;66564;42.482;25.548;2023-09-08T05:27:55;23.05;45.42
77467;DHT22;66564;42.482;25.548;2023-09-08T05:30:21;23.20;45.13
77467;DHT22;66564;42.482;25.548;2023-09-08T05:32:46;23.39;44.78
77467;DHT22;66564;42.482;25.548;2023-09-08T05:35:11;23.57;43.90
77467;DHT22;66564;42.482;25.548;2023-09-08T05:37:37;23.67;43.58
77467;DHT22;66564;42.482;25.548;2023-09-08T05:40:02;23.78;44.28
77467;DHT22;66564;42.482;25.548;2023-09-08T05:42:29;23.97;43.85
77467;DHT22;66564;42.482;25.548;2023-09-08T05:44:55;24.08;42.71
77467;DHT22;66564;42.482;25.548;2023-09-08T05:47:20;24.24;43.03
77467;DHT22;66564;42.482;25.548;2023-09-08T05:49:45;24.38;42.43
77467;DHT22;66564;42.482;25.548;2023-09-08T05:52:11;24.51;42.53
77467;DHT22;66564;42.482;25.548;2023-09-08T05:54:36;24.65;41.67
77467;DHT22;66564;42.482;25.548;2023-09-08T05:57:02;24.84;41.21
77467;DHT22;66564;42.482;25.548;2023-09-08T05:59:30;25.01;41.36
77467;DHT22;66564;42.482;25.548;2023-09-08T06:01:56;25.18;41.23
77467;DHT22;66564;42.482;25.548;2023-09-08T06:04:21;25.33;40.28
77467;DHT22;66564;42.482;25.548;2023-09-08T06:06:47;25.49;39.60
77467;DHT22;66564;42.482;25.548;2023-09-08T06:09:12;25.59;39.50
77467;DHT22;66564;42.482;25.548;2023-09-08T06:11:40;25.80;39.97
77467;DHT22;66564;42.482;25.548;2023-09-08T06:14:05;25.96;39.02
77467;DHT22;66564;42.482;25.548;2023-09-08T06:16:31;26.11;38.43
77467;DHT22;66564;42.482;25.548;2023-09-08T06:18:56;26.21;38.78
77467;DHT22;66564;42.482;25.548;2023-09-08T06:21:22;26.31;38.34
77467;DHT22;66564;42.482;25.548;2023-09-08T06:23:47;26.44;38.25
77467;DHT22;66564;42.482;25.548;2023-09-08T06:26:12;26.55;37.48
77467;DHT22;66564;42.482;25.548;2023-09-08T06:28:39;26.69;37.82
77467;DHT22;66564;42.482;25.548;2023-09-08T06:31:07;26.75;37.36
77467;DHT22;66564;42.482;25.548;2023-09-08T06:33:32;26.88;37.02
77467;DHT22;66564;42.482;25.548;2023-09-08T06:35:59;27.00;36.84
77467;DHT22;66564;42.482;25.548;2023-09-08T06:38:24;27.12;36.66
77467;DHT22;66564;42.482;25.548;2023-09-08T06:40:50;27.19;36.21
77467;DHT22;66564;42.482;25.548;2023-09-08T06:43:18;27.29;36.36
77467;DHT22;66564;42.482;25.548;2023-09-08T06:45:47;27.40;36.39
77467;DHT22;66564;42.482;25.548;2023-09-08T06:48:13;27.56;36.53
77467;DHT22;66564;42.482;25.548;2023-09-08T06:50:39;27.64;35.97
77467;DHT22;66564;42.482;25.548;2023-09-08T06:53:05;27.77;35.42
77467;DHT22;66564;42.482;25.548;2023-09-08T06:55:31;27.89;36.32
77467;DHT22;66564;42.482;25.548;2023-09-08T06:57:57;27.79;34.79
77467;DHT22;66564;42.482;25.548;2023-09-08T07:00:22;27.87;34.93
77467;DHT22;66564;42.482;25.548;2023-09-08T07:02:48;28.00;35.03
77467;DHT22;66564;42.482;25.548;2023-09-08T07:05:15;28.07;34.36
77467;DHT22;66564;42.482;25.548;2023-09-08T07:07:50;28.11;33.56
77467;DHT22;66564;42.482;25.548;2023-09-08T07:10:16;28.14;35.68
77467;DHT22;66564;42.482;25.548;2023-09-08T07:12:42;28.34;34.52
77467;DHT22;66564;42.482;25.548;2023-09-08T07:15:08;28.33;33.75
77467;DHT22;66564;42.482;25.548;2023-09-08T07:17:34;28.52;34.80
77467;DHT22;66564;42.482;25.548;2023-09-08T07:19:59;28.65;33.79
77467;DHT22;66564;42.482;25.548;2023-09-08T07:22:25;28.80;33.23
77467;DHT22;66564;42.482;25.548;2023-09-08T07:24:50;28.96;34.24
77467;DHT22;66564;42.482;25.548;2023-09-08T07:27:16;29.03;33.24
77467;DHT22;66564;42.482;25.548;2023-09-08T07:29:44;29.15;33.07
77467;DHT22;66564;42.482;25.548;2023-09-08T07:32:10;29.19;31.92
77467;DHT22;66564;42.482;25.548;2023-09-08T07:34:36;29.23;31.54
77467;DHT22;66564;42.482;25.548;2023-09-08T07:37:01;29.27;33.01
77467;DHT22;66564;42.482;25.548;2023-09-08T07:39:27;29.25;31.83
77467;DHT22;66564;42.482;25.548;2023-09-08T07:41:52;29.34;32.03
77467;DHT22;66564;42.482;25.548;2023-09-08T07:44:18;29.50;31.71
77467;DHT22;66564;42.482;25.548;2023-09-08T07:46:44;29.59;31.20
77467;DHT22;66564;42.482;25.548;2023-09-08T07:49:11;29.70;31.70
77467;DHT22;66564;42.482;25.548;2023-09-08T07:51:36;29.80;31.76
77467;DHT22;66564;42.482;25.548;2023-09-08T07:54:02;29.88;31.22
77467;DHT22;66564;42.482;25.548;2023-09-08T07:56:29;29.87;30.40
77467;DHT22;66564;42.482;25.548;2023-09-08T07:58:55;29.93;31.63
77467;DHT22;66564;42.482;25.548;2023-09-08T08:01:20;30.08;31.18
77467;DHT22;66564;42.482;25.548;2023-09-08T08:03:46;30.21;30.37
77467;DHT22;66564;42.482;25.548;2023-09-08T08:06:11;30.20;30.51
77467;DHT22;66564;42.482;25.548;2023-09-08T08:08:36;30.23;30.28
77467;DHT22;66564;42.482;25.548;2023-09-08T08:11:14;30.10;30.43
77467;DHT22;66564;42.482;25.548;2023-09-08T08:13:39;30.03;31.01
77467;DHT22;66564;42.482;25.548;2023-09-08T08:16:05;29.97;29.87
77467;DHT22;66564;42.482;25.548;2023-09-08T08:18:32;29.90;30.51
77467;DHT22;66564;42.482;25.548;2023-09-08T08:20:57;29.93;30.78
77467;DHT22;66564;42.482;25.548;2023-09-08T08:23:23;29.91;30.56
77467;DHT22;66564;42.482;25.548;2023-09-08T08:25:49;29.78;30.45
77467;DHT22;66564;42.482;25.548;2023-09-08T08:28:14;29.60;30.50
77467;DHT22;66564;42.482;25.548;2023-09-08T08:30:40;29.56;31.00
77467;DHT22;66564;42.482;25.548;2023-09-08T08:33:06;29.42;31.43
77467;DHT22;66564;42.482;25.548;2023-09-08T08:35:31;29.16;31.52
77467;DHT22;66564;42.482;25.548;2023-09-08T08:38:03;29.10;31.97
77467;DHT22;66564;42.482;25.548;2023-09-08T08:40:31;29.10;31.01
77467;DHT22;66564;42.482;25.548;2023-09-08T08:42:59;29.02;30.66
77467;DHT22;66564;42.482;25.548;2023-09-08T08:45:25;29.00;30.00
77467;DHT22;66564;42.482;25.548;2023-09-08T08:47:52;28.87;30.91
77467;DHT22;66564;42.482;25.548;2023-09-08T08:50:18;28.40;30.44
77467;DHT22;66564;42.482;25.548;2023-09-08T08:52:44;28.54;31.21
77467;DHT22;66564;42.482;25.548;2023-09-08T08:55:10;28.51;30.59
77467;DHT22;66564;42.482;25.548;2023-09-08T08:57:39;28.44;30.67
77467;DHT22;66564;42.482;25.548;2023-09-08T09:00:10;28.33;31.13
77467;DHT22;66564;42.482;25.548;2023-09-08T09:02:39;28.40;31.77
77467;DHT22;66564;42.482;25.548;2023-09-08T09:05:05;28.37;30.69
77467;DHT22;66564;42.482;25.548;2023-09-08T09:07:33;28.41;30.72
77467;DHT22;66564;42.482;25.548;2023-09-08T09:09:58;28.41;31.65
77467;DHT22;66564;42.482;25.548;2023-09-08T09:12:27;28.51;31.28
77467;DHT22;66564;42.482;25.548;2023-09-08T09:14:53;28.54;31.31
77467;DHT22;66564;42.482;25.548;2023-09-08T09:17:19;28.64;31.94
77467;DHT22;66564;42.482;25.548;2023-09-08T09:19:44;28.74;31.85
77467;DHT22;66564;42.482;25.548;2023-09-08T09:22:10;28.78;31.41
77467;DHT22;66564;42.482;25.548;2023-09-08T09:24:37;28.82;31.23
77467;DHT22;66564;42.482;25.548;2023-09-08T09:27:06;28.75;31.36
77467;DHT22;66564;42.482;25.548;2023-09-08T09:29:33;28.74;31.24
77467;DHT22;66564;42.482;25.548;2023-09-08T09:32:04;28.78;32.28
77467;DHT22;66564;42.482;25.548;2023-09-08T09:34:32;28.76;32.02
77467;DHT22;66564;42.482;25.548;2023-09-08T09:36:57;28.75;31.73
77467;DHT22;66564;42.482;25.548;2023-09-08T09:39:24;28.68;31.95
77467;DHT22;66564;42.482;25.548;2023-09-08T09:41:57;28.65;31.49
77467;DHT22;66564;42.482;25.548;2023-09-08T09:44:23;28.55;33.32
77467;DHT22;66564;42.482;25.548;2023-09-08T09:46:52;28.59;34.14
77467;DHT22;66564;42.482;25.548;2023-09-08T09:49:17;28.57;32.75
77467;DHT22;66564;42.482;25.548;2023-09-08T09:51:44;28.51;32.21
77467;DHT22;66564;42.482;25.548;2023-09-08T09:54:11;28.57;33.03
77467;DHT22;66564;42.482;25.548;2023-09-08T09:56:37;28.64;32.64
77467;DHT22;66564;42.482;25.548;2023-09-08T09:59:03;28.74;32.31
77467;DHT22;66564;42.482;25.548;2023-09-08T10:01:29;28.76;32.19
77467;DHT22;66564;42.482;25.548;2023-09-08T10:03:57;28.79;31.83
77467;DHT22;66564;42.482;25.548;2023-09-08T10:06:23;28.67;31.15
77467;DHT22;66564;42.482;25.548;2023-09-08T10:08:51;28.62;31.49
77467;DHT22;66564;42.482;25.548;2023-09-08T10:11:20;28.55;31.59
77467;DHT22;66564;42.482;25.548;2023-09-08T10:13:47;28.49;31.33
77467;DHT22;66564;42.482;25.548;2023-09-08T10:16:16;28.45;31.72
77467;DHT22;66564;42.482;25.548;2023-09-08T10:18:46;28.40;31.58
77467;DHT22;66564;42.482;25.548;2023-09-08T10:21:13;28.38;32.45
77467;DHT22;66564;42.482;25.548;2023-09-08T10:23:42;28.38;32.12
77467;DHT22;66564;42.482;25.548;2023-09-08T10:26:10;28.27;31.64
77467;DHT22;66564;42.482;25.548;2023-09-08T10:28:36;28.15;31.86
77467;DHT22;66564;42.482;25.548;2023-09-08T10:31:02;28.17;31.93
77467;DHT22;66564;42.482;25.548;2023-09-08T10:33:29;28.11;32.24
77467;DHT22;66564;42.482;25.548;2023-09-08T10:35:55;28.03;32.89
77467;DHT22;66564;42.482;25.548;2023-09-08T10:40:51;28.07;33.16
77467;DHT22;66564;42.482;25.548;2023-09-08T10:43:18;28.18;33.30
77467;DHT22;66564;42.482;25.548;2023-09-08T10:45:43;28.29;33.11
77467;DHT22;66564;42.482;25.548;2023-09-08T10:48:10;28.37;32.85
77467;DHT22;66564;42.482;25.548;2023-09-08T10:50:40;28.27;32.79
77467;DHT22;66564;42.482;25.548;2023-09-08T10:53:18;28.11;33.07
77467;DHT22;66564;42.482;25.548;2023-09-08T10:55:48;28.22;32.58
77467;DHT22;66564;42.482;25.548;2023-09-08T10:58:33;28.33;31.98
77467;DHT22;66564;42.482;25.548;2023-09-08T11:01:01;28.34;31.90
77467;DHT22;66564;42.482;25.548;2023-09-08T11:03:48;28.44;31.77
77467;DHT22;66564;42.482;25.548;2023-09-08T11:06:25;28.51;31.99
77467;DHT22;66564;42.482;25.548;2023-09-08T11:09:27;28.61;32.20
77467;DHT22;66564;42.482;25.548;2023-09-08T11:12:03;28.59;32.17
77467;DHT22;66564;42.482;25.548;2023-09-08T11:14:52;28.67;32.49
77467;DHT22;66564;42.482;25.548;2023-09-08T11:17:33;28.72;31.77
77467;DHT22;66564;42.482;25.548;2023-09-08T11:20:11;28.76;31.98
77467;DHT22;66564;42.482;25.548;2023-09-08T11:37:21;28.94;31.30
77467;DHT22;66564;42.482;25.548;2023-09-08T11:39:52;28.92;30.79
77467;DHT22;66564;42.482;25.548;2023-09-08T11:48:10;28.76;30.85
77467;DHT22;66564;42.482;25.548;2023-09-08T11:50:48;28.76;31.23
77467;DHT22;66564;42.482;25.548;2023-09-08T11:53:19;28.75;30.28
77467;DHT22;66564;42.482;25.548;2023-09-08T11:55:44;28.71;29.99
77467;DHT22;66564;42.482;25.548;2023-09-08T11:58:10;28.57;29.87
77467;DHT22;66564;42.482;25.548;2023-09-08T12:00:36;28.52;30.46
77467;DHT22;66564;42.482;25.548;2023-09-08T12:03:12;28.52;30.67
77467;DHT22;66564;42.482;25.548;2023-09-08T12:05:39;28.54;30.47
77467;DHT22;66564;42.482;25.548;2023-09-08T12:08:06;28.52;30.40
77467;DHT22;66564;42.482;25.548;2023-09-08T12:10:39;28.49;30.07
77467;DHT22;66564;42.482;25.548;2023-09-08T12:13:06;28.54;30.25
77467;DHT22;66564;42.482;25.548;2023-09-08T12:15:38;28.51;30.36
77467;DHT22;66564;42.482;25.548;2023-09-08T12:18:06;28.51;30.22
77467;DHT22;66564;42.482;25.548;2023-09-08T12:20:32;28.48;31.00
77467;DHT22;66564;42.482;25.548;2023-09-08T12:23:03;28.49;31.48
77467;DHT22;66564;42.482;25.548;2023-09-08T12:25:29;28.37;31.44
77467;DHT22;66564;42.482;25.548;2023-09-08T12:27:59;28.34;31.73
77467;DHT22;66564;42.482;25.548;2023-09-08T12:30:25;28.27;32.51
77467;DHT22;66564;42.482;25.548;2023-09-08T12:32:56;28.21;33.92
77467;DHT22;66564;42.482;25.548;2023-09-08T12:35:23;28.07;35.72
77467;DHT22;66564;42.482;25.548;2023-09-08T12:38:06;27.98;36.48
77467;DHT22;66564;42.482;25.548;2023-09-08T12:40:37;27.86;36.97
77467;DHT22;66564;42.482;25.548;2023-09-08T12:43:03;27.74;37.58
77467;DHT22;66564;42.482;25.548;2023-09-08T12:45:29;27.69;37.78
77467;DHT22;66564;42.482;25.548;2023-09-08T12:47:58;27.59;37.85
77467;DHT22;66564;42.482;25.548;2023-09-08T12:50:26;27.45;38.27
77467;DHT22;66564;42.482;25.548;2023-09-08T12:52:52;27.39;38.73
77467;DHT22;66564;42.482;25.548;2023-09-08T12:55:17;27.32;38.72
77467;DHT22;66564;42.482;25.548;2023-09-08T12:57:43;27.25;38.88
77467;DHT22;66564;42.482;25.548;2023-09-08T13:00:09;27.10;38.84
77467;DHT22;66564;42.482;25.548;2023-09-08T13:02:34;27.00;38.98
77467;DHT22;66564;42.482;25.548;2023-09-08T13:05:01;26.91;39.23
77467;DHT22;66564;42.482;25.548;2023-09-08T13:07:26;26.81;39.45
77467;DHT22;66564;42.482;25.548;2023-09-08T13:09:52;26.74;39.52
77467;DHT22;66564;42.482;25.548;2023-09-08T13:12:18;26.69;39.61
77467;DHT22;66564;42.482;25.548;2023-09-08T13:14:43;26.69;39.61
77467;DHT22;66564;42.482;25.548;2023-09-08T13:17:10;26.67;39.69
77467;DHT22;66564;42.482;25.548;2023-09-08T13:19:37;26.64;39.62
77467;DHT22;66564;42.482;25.548;2023-09-08T13:22:06;26.65;39.76
77467;DHT22;66564;42.482;25.548;2023-09-08T13:24:31;26.62;39.70
77467;DHT22;66564;42.482;25.548;2023-09-08T13:26:57;26.65;39.78
77467;DHT22;66564;42.482;25.548;2023-09-08T13:29:22;26.67;39.63
77467;DHT22;66564;42.482;25.548;2023-09-08T13:31:48;26.67;39.66
77467;DHT22;66564;42.482;25.548;2023-09-08T13:34:13;26.69;39.19
77467;DHT22;66564;42.482;25.548;2023-09-08T13:36:39;26.69;38.84
77467;DHT22;66564;42.482;25.548;2023-09-08T13:39:05;26.74;38.85
77467;DHT22;66564;42.482;25.548;2023-09-08T13:41:50;26.74;38.74
77467;DHT22;66564;42.482;25.548;2023-09-08T13:44:18;26.75;38.55
77467;DHT22;66564;42.482;25.548;2023-09-08T13:46:47;26.74;38.95
77467;DHT22;66564;42.482;25.548;2023-09-08T13:49:13;26.72;38.93
77467;DHT22;66564;42.482;25.548;2023-09-08T13:51:39;26.75;38.54
77467;DHT22;66564;42.482;25.548;2023-09-08T13:54:05;26.75;37.59
77467;DHT22;66564;42.482;25.548;2023-09-08T13:56:30;26.78;37.23
77467;DHT22;66564;42.482;25.548;2023-09-08T13:58:55;26.74;36.97
77467;DHT22;66564;42.482;25.548;2023-09-08T14:01:21;26.71;36.69
77467;DHT22;66564;42.482;25.548;2023-09-08T14:03:46;26.69;36.62
77467;DHT22;66564;42.482;25.548;2023-09-08T14:06:17;26.58;36.75
77467;DHT22;66564;42.482;25.548;2023-09-08T14:08:42;26.55;37.15
77467;DHT22;66564;42.482;25.548;2023-09-08T14:11:08;26.62;37.30
77467;DHT22;66564;42.482;25.548;2023-09-08T14:13:33;26.59;37.20
77467;DHT22;66564;42.482;25.548;2023-09-08T14:15:58;26.62;37.35
77467;DHT22;66564;42.482;25.548;2023-09-08T14:18:24;26.64;37.02
77467;DHT22;66564;42.482;25.548;2023-09-08T14:20:49;26.68;36.81
77467;DHT22;66564;42.482;25.548;2023-09-08T14:23:15;26.68;36.86
77467;DHT22;66564;42.482;25.548;2023-09-08T14:25:40;26.62;37.09
77467;DHT22;66564;42.482;25.548;2023-09-08T14:28:06;26.41;38.63
77467;DHT22;66564;42.482;25.548;2023-09-08T14:30:31;26.49;39.12
77467;DHT22;66564;42.482;25.548;2023-09-08T14:32:57;26.30;39.79
77467;DHT22;66564;42.482;25.548;2023-09-08T14:35:22;26.25;39.95
77467;DHT22;66564;42.482;25.548;2023-09-08T14:37:48;26.21;40.28
77467;DHT22;66564;42.482;25.548;2023-09-08T14:40:14;26.05;41.59
77467;DHT22;66564;42.482;25.548;2023-09-08T14:42:39;26.03;41.95
77467;DHT22;66564;42.482;25.548;2023-09-08T14:45:05;25.96;41.88
77467;DHT22;66564;42.482;25.548;2023-09-08T14:47:31;25.93;41.78
77467;DHT22;66564;42.482;25.548;2023-09-08T14:49:57;25.97;41.77
77467;DHT22;66564;42.482;25.548;2023-09-08T14:52:23;25.80;41.99
77467;DHT22;66564;42.482;25.548;2023-09-08T14:54:48;25.83;41.69
77467;DHT22;66564;42.482;25.548;2023-09-08T14:57:14;25.76;41.98
77467;DHT22;66564;42.482;25.548;2023-09-08T14:59:40;25.77;41.79
77467;DHT22;66564;42.482;25.548;2023-09-08T15:02:07;25.80;41.37
77467;DHT22;66564;42.482;25.548;2023-09-08T15:04:33;25.77;41.23
77467;DHT22;66564;42.482;25.548;2023-09-08T15:06:58;25.50;41.48
77467;DHT22;66564;42.482;25.548;2023-09-08T15:09:24;25.59;41.45
77467;DHT22;66564;42.482;25.548;2023-09-08T15:11:49;25.59;41.02
77467;DHT22;66564;42.482;25.548;2023-09-08T15:14:15;25.36;41.01
77467;DHT22;66564;42.482;25.548;2023-09-08T15:16:40;25.15;41.58
77467;DHT22;66564;42.482;25.548;2023-09-08T15:19:06;25.18;41.56
77467;DHT22;66564;42.482;25.548;2023-09-08T15:21:31;25.14;41.54
77467;DHT22;66564;42.482;25.548;2023-09-08T15:23:58;25.11;41.67
77467;DHT22;66564;42.482;25.548;2023-09-08T15:26:24;25.16;41.80
77467;DHT22;66564;42.482;25.548;2023-09-08T15:28:49;25.16;41.87
77467;DHT22;66564;42.482;25.548;2023-09-08T15:31:16;25.05;42.28
77467;DHT22;66564;42.482;25.548;2023-09-08T15:33:42;25.01;42.47
77467;DHT22;66564;42.482;25.548;2023-09-08T15:36:07;25.01;42.70
77467;DHT22;66564;42.482;25.548;2023-09-08T15:38:32;25.01;42.56